Fish Lake Valley, Nevada Weather observations

Data are for 10 minute period ending at time listed.
 Day   Time    Ave.   Ave.  Ave.  Vector   Max.   Stn.    Total    Solar   Ave.  
  of    of     Air    Rel.  Wind   Wind    Wind   Baro.  Precip.   Rad.    Soil  
Year   Day     Temp.  Hum.  Speed  Dir.    Gust   Pres.                    Temp. 
2016   (PST)    F      %     mph   deg.    mph     mb.     in.     W/m2     F    
--------------------------------------------------------------------------------- 
 343    4:50   28.1    48    4.4   176      6.9   854.9    0.00       2    38.9  
 343    5:00   27.6    49    3.8   198      5.7   855.0    0.00       2    38.9  
 343    5:10   25.8    52    3.6   251      6.7   855.4    0.00       2    38.9  
 343    5:20   23.4    55    4.6   357      7.3   855.6    0.00       2    38.9  
 343    5:30   23.0    55    4.9   326      7.8   855.7    0.00       2    38.8  
 343    5:40   22.4    55    3.5   298      4.7   855.7    0.00       2    38.8  
 343    5:50   21.9    56    3.6   284      4.9   855.8    0.00       2    38.8  
 343    6:00   21.3    56    3.4   274      5.3   856.0    0.00       2    38.7  
 343    6:10   20.1    59    2.8   235      4.7   856.0    0.00       2    38.7  
 343    6:20   20.3    59    3.4   219      5.6   855.9    0.00       2    38.7  
 343    6:30   20.9    58    3.5   254      8.2   855.9    0.00       2    38.7  
 343    6:40   21.9    56    3.8   279      7.0   855.9    0.00       3    38.6  
 343    6:50   21.8    56    2.5   248      6.8   856.0    0.00       5    38.6  
 343    7:00   20.0    59    3.6    82      6.7   856.0    0.00      10    38.6  
 343    7:10   19.4    63    2.9   128      5.4   855.9    0.00      21    38.6  
 343    7:20   20.2    62    3.7   188      7.6   855.9    0.00      46    38.5  
 343    7:30   21.3    59    5.2   206      7.6   856.2    0.00      56    38.5  
 343    7:40   22.5    57    4.6   207      7.7   856.3    0.00      60    38.5  
 343    7:50   23.1    56    4.1   214      8.2   856.4    0.00      64    38.4  
 343    8:00   22.7    57    4.3   343      7.0   856.6    0.00      77    38.4  
 343    8:10   22.4    58    3.8   349      5.4   856.7    0.00      87    38.4  
 343    8:20   22.5    57    2.8    14      4.1   856.7    0.00     102    38.4  
 343    8:30   24.1    54    0.8    34      3.1   856.8    0.00     139    38.3  
 343    8:40   25.7    51    1.7   338      5.6   857.0    0.00     187    38.3  
 343    8:50   26.4    50    3.3   151      5.5   857.0    0.00     154    38.3  
 343    9:00   27.1    50    4.5   204      7.1   857.2    0.00     207    38.3  
 343    9:10   28.2    47    2.5   199      4.1   857.3    0.00     199    38.2  
 343    9:20   28.5    46    2.6   291      4.6   857.3    0.00     127    38.2  
 343    9:30   28.8    45    2.6   238      5.7   857.3    0.00     134    38.2  
 343    9:40   30.2    44    3.8   214      6.4   857.1    0.00     252    38.1  
 343    9:50   31.4    42    3.1   335      6.3   857.1    0.00     405    38.1  
 343   10:00   32.9    40    5.9   164     12.1   856.9    0.00     270    38.1  
 343   10:10   36.5    34   10.4   152     13.7   856.8    0.00     236    38.1  
 343   10:20   37.0    32   12.6   149     17.2   856.8    0.00     170    38.0  
 343   10:30   37.0    32   12.9   134     17.5   856.6    0.00     154    38.0  
 343   10:40   37.7    32   13.6   128     23.4   856.5    0.00     213    38.0  
 343   10:50   37.9    32   14.2   120     18.8   856.3    0.00     267    38.0  
 343   11:00   39.1    31   14.5   123     21.2   856.1    0.00     393    37.9  
 343   11:10   40.3    30   18.6   121     25.4   855.9    0.00     624    37.9  
 343   11:20   41.0    30   16.0   120     20.7   855.9    0.00     612    37.9  
 343   11:30   41.9    29   17.6   117     23.3   855.6    0.00     656    37.9  
 343   11:40   42.5    29   17.7   120     22.6   855.4    0.00     592    37.9  
 343   11:50   42.8    29   17.2   122     23.4   855.2    0.00     585    37.8  
 343   12:00   42.8    28   19.4   116     25.9   854.9    0.00     563    37.8  
 343   12:10   42.9    28   18.6   114     26.5   854.9    0.00     585    37.8  
 343   12:20   43.1    28   20.1   116     26.4   854.9    0.00     647    37.8  
 343   12:30   43.1    28   20.8   114     27.2   854.7    0.00     534    37.8  
 343   12:40   42.5    28   20.0   119     24.8   854.7    0.00     376    37.8  
 343   12:50   42.7    28   18.6   120     23.9   854.8    0.00     399    37.8  
 343   13:00   42.9    28   18.4   111     24.3   854.6    0.00     352    37.8  
 343   13:10   42.5    28   18.5   118     24.0   854.4    0.00     280    37.8  
 343   13:20   42.3    29   18.9   124     25.9   854.2    0.00     209    37.8  
 343   13:30   42.5    29   18.9   124     23.2   854.2    0.00     235    37.8  
 343   13:40   42.5    29   18.5   126     23.4   854.3    0.00     183    37.8  
 343   13:50   42.3    29   17.9   129     24.0   854.3    0.00     171    37.8  
 343   14:00   42.4    30   15.8   134     21.5   854.5    0.00     130    37.9  
 343   14:10   42.5    30   14.8   127     20.8   854.6    0.00     110    37.9  
 343   14:20   42.6    30   15.9   131     20.6   854.7    0.00     128    37.9  
 343   14:30   41.8    31   18.0   128     24.2   854.6    0.00      86    37.9  
 343   14:40   41.5    31   15.8   134     21.1   854.8    0.00      54    38.0  
 343   14:50   41.7    31   17.0   128     23.2   854.7    0.00     246    38.0  
 343   15:00   42.8    30   14.7   129     21.3   854.9    0.00     309    38.0  
 343   15:10   43.5    29   16.1   122     21.4   855.0    0.00     298    38.1  
 343   15:20   43.5    29   17.9   113     24.2   854.7    0.00     263    38.1  
 343   15:30   43.5    29   19.5   116     26.6   854.5    0.00     233    38.2  
 343   15:40   43.1    29   18.2   119     23.9   854.6    0.00     193    38.2  
 343   15:50   42.8    30   16.8   122     22.4   855.0    0.00     139    38.2  
 343   16:00   41.9    30   15.6   115     23.4   855.1    0.00      35    38.3  
 343   16:10   41.4    30   14.2   130     19.7   855.2    0.00      31    38.3  
 343   16:20   40.9    31   13.8   132     21.1   855.3    0.00      20    38.4  
 343   16:30   40.2    31   11.1   127     16.5   855.5    0.00      12    38.4  
 343   16:40   40.0    31   12.3   121     18.3   855.5    0.00       5    38.4  
 343   16:50   39.7    31   11.3   123     14.0   855.4    0.00       3    38.5  
 343   17:00   39.2    32   11.6   134     19.6   855.3    0.00       3    38.5  
 343   17:10   39.6    33   16.6   129     22.3   855.3    0.00       2    38.6  
 343   17:20   38.1    35   15.2   147     21.1   855.5    0.00       2    38.6  
 343   17:30   37.5    35   13.8   146     18.0   855.6    0.00       2    38.7  
 343   17:40   38.4    33   13.5   138     17.5   855.7    0.00       2    38.7  
 343   17:50   37.7    34   12.1   132     16.2   855.6    0.00       2    38.7  
 343   18:00   37.3    34   10.4   130     15.2   855.9    0.00       2    38.8  
 343   18:10   37.2    34   10.1   140     16.5   855.9    0.00       2    38.8  
 343   18:20   35.9    35   10.2   179     15.7   856.0    0.00       2    38.8  
 343   18:30   35.7    35    6.9   163     12.1   856.4    0.00       2    38.9  
 343   18:40   35.9    35    8.8   164     12.8   856.5    0.00       2    38.9  
 343   18:50   36.2    34    8.1   174     10.8   856.5    0.00       2    38.9  
 343   19:00   35.8    35    5.7   183     11.2   856.6    0.00       2    39.0  
 343   19:10   36.6    34    6.0   150     10.7   856.5    0.00       2    39.0  
 343   19:20   35.1    36    7.6   180     12.1   856.5    0.00       2    39.0  
 343   19:30   34.8    37    7.5   154     11.0   856.6    0.00       2    39.0  
 343   19:40   34.3    37    8.6   165     15.1   856.6    0.00       2    39.1  
 343   19:50   34.1    37    9.0   160     12.0   856.6    0.00       2    39.1  
 343   20:00   33.2    39    9.7   172     11.8   856.9    0.00       2    39.1  
 343   20:10   32.9    40    7.9   153     11.1   857.0    0.00       2    39.1  
 343   20:20   31.6    42    7.9   162     12.3   857.0    0.00       2    39.1  
 343   20:30   32.7    40   10.3   188     14.1   857.1    0.00       2    39.1  
 343   20:40   33.0    40   11.5   182     13.9   857.0    0.00       2    39.2  
 343   20:50   34.2    38   12.0   172     15.3   857.0    0.00       2    39.2  
 343   21:00   33.7    39   12.5   165     15.3   857.1    0.00       2    39.2  
 343   21:10   32.5    40   11.9   154     14.5   857.0    0.00       2    39.2  
 343   21:20   30.6    43   10.4   180     13.4   856.9    0.00       2    39.2  
 343   21:30   31.5    42   10.7   164     14.4   857.0    0.00       2    39.2  
 343   21:40   31.4    42   10.9   162     12.7   857.0    0.00       2    39.2  
 343   21:50   31.2    42   10.3   181     11.9   857.3    0.00       2    39.2  
 343   22:00   31.2    42    9.5   190     11.4   857.5    0.00       2    39.2  
 343   22:10   30.7    43    7.8   195     10.2   857.6    0.00       2    39.2  
 343   22:20   30.2    44    6.9   198      9.2   857.6    0.00       2    39.2  
 343   22:30   29.6    45    9.3   200     11.4   857.5    0.00       2    39.2  
 343   22:40   29.9    45    8.4   200      9.8   857.5    0.00       2    39.2  
 343   22:50   30.5    44    6.8   196      8.4   857.7    0.00       2    39.2  
 343   23:00   29.1    46    3.7    58      7.0   857.8    0.00       2    39.2  
 343   23:10   27.2    49    2.7   346      4.3   857.9    0.00       2    39.2  
 343   23:20   27.7    48    1.4   103      4.6   857.9    0.00       2    39.1  
 343   23:30   27.7    48    1.4   127      3.7   857.9    0.00       2    39.1  
 343   23:40   27.0    49    3.3   168      6.1   858.0    0.00       2    39.1  
 343   23:50   27.0    50    1.9   208      4.4   858.1    0.00       2    39.1  
 344    0:00   26.6    50    2.3   142      4.8   858.1    0.00       2    39.1  
 344    0:10   26.1    51    2.0   272      4.4   858.2    0.00       2    39.1  
 344    0:20   26.5    50    1.9   164      4.2   858.1    0.00       2    39.1  
 344    0:30   26.0    52    2.6   184      4.6   858.2    0.00       2    39.1  
 344    0:40   25.1    52    3.0   304      6.4   858.3    0.00       2    39.1  
 344    0:50   23.6    54    4.0   296      7.6   858.3    0.00       2    39.1  
 344    1:00   24.6    53    3.1   319      7.6   858.2    0.00       2    39.1  
 344    1:10   24.1    54    3.8   134      8.3   858.1    0.00       2    39.0  
 344    1:20   24.2    55    2.6   199      5.2   858.2    0.00       2    39.0  
 344    1:30   23.0    57    4.5   224      7.3   858.3    0.00       2    39.0  
 344    1:40   24.2    55    3.7   211      8.1   858.2    0.00       2    39.0  
 344    1:50   23.1    55    3.7    38      7.2   858.5    0.00       2    39.0  
 344    2:00   21.4    59    3.8   115      5.9   858.6    0.00       2    39.0  
 344    2:10   21.9    58    3.1   260      6.3   858.8    0.00       2    38.9  
 344    2:20   22.3    58    2.9   120      5.0   858.8    0.00       2    38.9  
 344    2:30   23.3    57    3.1   168      4.9   858.7    0.00       2    38.9  
 344    2:40   23.2    56    3.0   185      5.3   858.8    0.00       2    38.9  
 344    2:50   24.2    55    5.7   145      8.2   858.5    0.00       2    38.9  
 344    3:00   23.8    57    5.9   127      7.3   858.5    0.00       2    38.8  
 344    3:10   22.9    59    3.9   110      7.9   858.4    0.00       2    38.8  
 344    3:20   23.0    59    3.1   230      5.7   858.4    0.00       2    38.8  
 344    3:30   24.6    57    6.2   141     10.6   858.2    0.00       2    38.8  
 344    3:40   26.8    53    8.3   168     10.3   858.0    0.00       2    38.7  
 344    3:50   27.4    53    7.8   162      9.9   857.8    0.00       2    38.7  
 344    4:00   26.9    54    6.6   142      8.1   857.9    0.00       2    38.7  
 344    4:10   25.2    58    5.9   112      7.0   857.9    0.00       2    38.6  
 344    4:20   24.7    59    2.7   325      6.5   858.0    0.00       2    38.6  
 344    4:30   25.6    57    3.3   161      6.0   858.0    0.00       2    38.6  
 344    4:40   25.0    57    2.5    42      4.9   857.9    0.00       2    38.6  

Return to Fish Lake Valley, Nevada graphs page.


Western Regional Climate Center,wrcc@dri.edu